sensor_id;sensor_type;location;lat;lon;timestamp;P1;durP1;ratioP1;P2;durP2;ratioP2
38457;SDS011;24239;48.058;10.486;2023-07-24T00:02:24;18.90;;;12.18;;
38457;SDS011;24239;48.058;10.486;2023-07-24T00:04:50;21.23;;;11.77;;
38457;SDS011;24239;48.058;10.486;2023-07-24T00:07:16;20.10;;;13.15;;
38457;SDS011;24239;48.058;10.486;2023-07-24T00:09:42;19.70;;;12.85;;
38457;SDS011;24239;48.058;10.486;2023-07-24T00:12:10;21.73;;;12.95;;
38457;SDS011;24239;48.058;10.486;2023-07-24T00:14:36;18.98;;;12.73;;
38457;SDS011;24239;48.058;10.486;2023-07-24T00:17:02;18.83;;;11.80;;
38457;SDS011;24239;48.058;10.486;2023-07-24T00:19:28;18.13;;;12.18;;
38457;SDS011;24239;48.058;10.486;2023-07-24T00:21:54;22.33;;;13.40;;
38457;SDS011;24239;48.058;10.486;2023-07-24T00:24:19;18.67;;;12.30;;
38457;SDS011;24239;48.058;10.486;2023-07-24T00:26:45;22.15;;;12.20;;
38457;SDS011;24239;48.058;10.486;2023-07-24T00:29:11;22.63;;;12.75;;
38457;SDS011;24239;48.058;10.486;2023-07-24T00:31:37;17.70;;;12.13;;
38457;SDS011;24239;48.058;10.486;2023-07-24T00:34:03;20.63;;;12.02;;
38457;SDS011;24239;48.058;10.486;2023-07-24T00:36:28;17.17;;;12.23;;
38457;SDS011;24239;48.058;10.486;2023-07-24T00:38:54;19.30;;;12.18;;
38457;SDS011;24239;48.058;10.486;2023-07-24T00:41:20;21.20;;;12.15;;
38457;SDS011;24239;48.058;10.486;2023-07-24T00:43:45;23.38;;;13.27;;
38457;SDS011;24239;48.058;10.486;2023-07-24T00:46:11;18.88;;;12.02;;
38457;SDS011;24239;48.058;10.486;2023-07-24T00:48:37;17.75;;;10.93;;
38457;SDS011;24239;48.058;10.486;2023-07-24T00:51:04;14.85;;;10.18;;
38457;SDS011;24239;48.058;10.486;2023-07-24T00:53:30;15.88;;;10.93;;
38457;SDS011;24239;48.058;10.486;2023-07-24T00:55:56;19.80;;;11.45;;
38457;SDS011;24239;48.058;10.486;2023-07-24T00:58:22;17.40;;;11.65;;
38457;SDS011;24239;48.058;10.486;2023-07-24T01:00:48;16.50;;;11.73;;
38457;SDS011;24239;48.058;10.486;2023-07-24T01:03:15;18.58;;;11.27;;
38457;SDS011;24239;48.058;10.486;2023-07-24T01:05:40;17.98;;;10.93;;
38457;SDS011;24239;48.058;10.486;2023-07-24T01:08:06;20.80;;;11.57;;
38457;SDS011;24239;48.058;10.486;2023-07-24T01:10:32;18.63;;;11.73;;
38457;SDS011;24239;48.058;10.486;2023-07-24T01:12:59;17.25;;;11.95;;
38457;SDS011;24239;48.058;10.486;2023-07-24T01:15:39;17.92;;;12.13;;
38457;SDS011;24239;48.058;10.486;2023-07-24T01:18:18;20.50;;;12.75;;
38457;SDS011;24239;48.058;10.486;2023-07-24T01:20:48;20.08;;;12.30;;
38457;SDS011;24239;48.058;10.486;2023-07-24T01:28:25;18.70;;;11.48;;
38457;SDS011;24239;48.058;10.486;2023-07-24T01:30:51;16.70;;;10.98;;
38457;SDS011;24239;48.058;10.486;2023-07-24T01:33:17;16.20;;;11.10;;
38457;SDS011;24239;48.058;10.486;2023-07-24T01:35:44;19.58;;;11.43;;
38457;SDS011;24239;48.058;10.486;2023-07-24T01:38:13;17.95;;;11.45;;
38457;SDS011;24239;48.058;10.486;2023-07-24T01:40:42;19.15;;;12.48;;
38457;SDS011;24239;48.058;10.486;2023-07-24T01:43:08;20.08;;;13.15;;
38457;SDS011;24239;48.058;10.486;2023-07-24T01:45:36;20.30;;;12.82;;
38457;SDS011;24239;48.058;10.486;2023-07-24T01:48:03;22.30;;;12.65;;
38457;SDS011;24239;48.058;10.486;2023-07-24T01:50:29;20.30;;;13.00;;
38457;SDS011;24239;48.058;10.486;2023-07-24T01:52:55;21.77;;;14.23;;
38457;SDS011;24239;48.058;10.486;2023-07-24T01:55:21;22.67;;;13.07;;
38457;SDS011;24239;48.058;10.486;2023-07-24T01:57:46;18.02;;;12.75;;
38457;SDS011;24239;48.058;10.486;2023-07-24T02:00:12;21.02;;;13.60;;
38457;SDS011;24239;48.058;10.486;2023-07-24T02:02:38;22.50;;;13.25;;
38457;SDS011;24239;48.058;10.486;2023-07-24T02:05:04;19.23;;;12.63;;
38457;SDS011;24239;48.058;10.486;2023-07-24T02:07:30;22.58;;;12.98;;
38457;SDS011;24239;48.058;10.486;2023-07-24T02:09:56;18.83;;;12.50;;
38457;SDS011;24239;48.058;10.486;2023-07-24T02:12:22;17.83;;;11.52;;
38457;SDS011;24239;48.058;10.486;2023-07-24T02:14:48;20.25;;;12.20;;
38457;SDS011;24239;48.058;10.486;2023-07-24T02:17:18;20.98;;;13.07;;
38457;SDS011;24239;48.058;10.486;2023-07-24T02:19:44;23.23;;;13.43;;
38457;SDS011;24239;48.058;10.486;2023-07-24T02:22:09;24.27;;;12.65;;
38457;SDS011;24239;48.058;10.486;2023-07-24T02:24:35;19.92;;;12.77;;
38457;SDS011;24239;48.058;10.486;2023-07-24T02:27:01;24.35;;;13.65;;
38457;SDS011;24239;48.058;10.486;2023-07-24T02:29:27;20.13;;;12.45;;
38457;SDS011;24239;48.058;10.486;2023-07-24T02:31:53;20.65;;;13.75;;
38457;SDS011;24239;48.058;10.486;2023-07-24T02:34:20;21.80;;;14.20;;
38457;SDS011;24239;48.058;10.486;2023-07-24T02:36:51;21.02;;;13.73;;
38457;SDS011;24239;48.058;10.486;2023-07-24T02:39:18;21.30;;;14.07;;
38457;SDS011;24239;48.058;10.486;2023-07-24T02:41:44;22.73;;;14.13;;
38457;SDS011;24239;48.058;10.486;2023-07-24T02:44:10;22.17;;;14.68;;
38457;SDS011;24239;48.058;10.486;2023-07-24T02:46:37;23.90;;;15.18;;
38457;SDS011;24239;48.058;10.486;2023-07-24T02:49:02;21.05;;;14.15;;
38457;SDS011;24239;48.058;10.486;2023-07-24T02:51:28;24.73;;;15.15;;
38457;SDS011;24239;48.058;10.486;2023-07-24T02:53:54;23.00;;;14.85;;
38457;SDS011;24239;48.058;10.486;2023-07-24T02:56:20;22.90;;;14.68;;
38457;SDS011;24239;48.058;10.486;2023-07-24T02:58:46;20.90;;;15.35;;
38457;SDS011;24239;48.058;10.486;2023-07-24T03:01:12;19.30;;;13.02;;
38457;SDS011;24239;48.058;10.486;2023-07-24T03:03:39;21.13;;;14.10;;
38457;SDS011;24239;48.058;10.486;2023-07-24T03:06:06;21.15;;;14.43;;
38457;SDS011;24239;48.058;10.486;2023-07-24T03:08:32;22.70;;;14.90;;
38457;SDS011;24239;48.058;10.486;2023-07-24T03:10:58;24.27;;;15.33;;
38457;SDS011;24239;48.058;10.486;2023-07-24T03:13:24;23.25;;;14.88;;
38457;SDS011;24239;48.058;10.486;2023-07-24T03:15:53;25.42;;;15.30;;
38457;SDS011;24239;48.058;10.486;2023-07-24T03:18:20;22.80;;;16.55;;
38457;SDS011;24239;48.058;10.486;2023-07-24T03:20:46;21.45;;;14.85;;
38457;SDS011;24239;48.058;10.486;2023-07-24T03:23:12;24.85;;;15.70;;
38457;SDS011;24239;48.058;10.486;2023-07-24T03:25:38;23.90;;;15.52;;
38457;SDS011;24239;48.058;10.486;2023-07-24T03:28:04;21.13;;;14.30;;
38457;SDS011;24239;48.058;10.486;2023-07-24T03:30:29;24.55;;;15.95;;
38457;SDS011;24239;48.058;10.486;2023-07-24T03:32:55;22.63;;;14.88;;
38457;SDS011;24239;48.058;10.486;2023-07-24T03:35:21;22.80;;;15.77;;
38457;SDS011;24239;48.058;10.486;2023-07-24T03:37:47;26.40;;;15.27;;
38457;SDS011;24239;48.058;10.486;2023-07-24T03:40:13;23.52;;;15.80;;
38457;SDS011;24239;48.058;10.486;2023-07-24T03:42:39;22.52;;;15.35;;
38457;SDS011;24239;48.058;10.486;2023-07-24T03:45:05;25.13;;;16.60;;
38457;SDS011;24239;48.058;10.486;2023-07-24T03:47:31;24.13;;;16.33;;
38457;SDS011;24239;48.058;10.486;2023-07-24T03:49:57;24.20;;;16.02;;
38457;SDS011;24239;48.058;10.486;2023-07-24T03:52:23;26.30;;;15.90;;
38457;SDS011;24239;48.058;10.486;2023-07-24T03:54:50;24.13;;;16.00;;
38457;SDS011;24239;48.058;10.486;2023-07-24T03:57:17;21.85;;;15.43;;
38457;SDS011;24239;48.058;10.486;2023-07-24T03:59:43;25.17;;;16.73;;
38457;SDS011;24239;48.058;10.486;2023-07-24T04:02:09;22.80;;;15.13;;
38457;SDS011;24239;48.058;10.486;2023-07-24T04:04:35;21.88;;;15.27;;
38457;SDS011;24239;48.058;10.486;2023-07-24T04:07:01;22.35;;;16.42;;
38457;SDS011;24239;48.058;10.486;2023-07-24T04:09:26;29.52;;;16.80;;
38457;SDS011;24239;48.058;10.486;2023-07-24T04:11:52;23.08;;;16.08;;
38457;SDS011;24239;48.058;10.486;2023-07-24T04:14:18;23.70;;;15.60;;
38457;SDS011;24239;48.058;10.486;2023-07-24T04:16:44;23.27;;;15.13;;
38457;SDS011;24239;48.058;10.486;2023-07-24T04:19:10;23.25;;;15.77;;
38457;SDS011;24239;48.058;10.486;2023-07-24T04:21:35;24.35;;;15.75;;
38457;SDS011;24239;48.058;10.486;2023-07-24T04:24:01;22.27;;;15.82;;
38457;SDS011;24239;48.058;10.486;2023-07-24T04:26:27;26.58;;;15.88;;
38457;SDS011;24239;48.058;10.486;2023-07-24T04:28:53;24.88;;;15.32;;
38457;SDS011;24239;48.058;10.486;2023-07-24T04:31:19;23.13;;;15.40;;
38457;SDS011;24239;48.058;10.486;2023-07-24T04:33:44;22.48;;;14.50;;
38457;SDS011;24239;48.058;10.486;2023-07-24T04:36:10;21.92;;;14.13;;
38457;SDS011;24239;48.058;10.486;2023-07-24T04:38:39;22.05;;;15.20;;
38457;SDS011;24239;48.058;10.486;2023-07-24T04:41:21;21.70;;;15.13;;
38457;SDS011;24239;48.058;10.486;2023-07-24T04:43:55;23.98;;;15.75;;
38457;SDS011;24239;48.058;10.486;2023-07-24T04:46:20;22.73;;;15.98;;
38457;SDS011;24239;48.058;10.486;2023-07-24T04:48:46;19.73;;;14.27;;
38457;SDS011;24239;48.058;10.486;2023-07-24T04:51:15;19.52;;;14.13;;
38457;SDS011;24239;48.058;10.486;2023-07-24T04:53:40;22.35;;;14.00;;
38457;SDS011;24239;48.058;10.486;2023-07-24T04:56:06;19.73;;;13.13;;
38457;SDS011;24239;48.058;10.486;2023-07-24T04:58:32;21.67;;;13.75;;
38457;SDS011;24239;48.058;10.486;2023-07-24T05:01:01;19.05;;;13.48;;
38457;SDS011;24239;48.058;10.486;2023-07-24T05:03:28;20.10;;;12.73;;
38457;SDS011;24239;48.058;10.486;2023-07-24T05:05:54;19.83;;;13.10;;
38457;SDS011;24239;48.058;10.486;2023-07-24T05:08:22;19.52;;;13.02;;
38457;SDS011;24239;48.058;10.486;2023-07-24T05:10:53;18.67;;;12.63;;
38457;SDS011;24239;48.058;10.486;2023-07-24T05:13:20;15.23;;;11.13;;
38457;SDS011;24239;48.058;10.486;2023-07-24T05:15:49;19.88;;;10.90;;
38457;SDS011;24239;48.058;10.486;2023-07-24T05:18:17;16.13;;;10.52;;
38457;SDS011;24239;48.058;10.486;2023-07-24T06:37:02;17.67;;;11.35;;
38457;SDS011;24239;48.058;10.486;2023-07-24T06:55:57;14.45;;;8.90;;
38457;SDS011;24239;48.058;10.486;2023-07-24T07:27:05;11.40;;;7.32;;
38457;SDS011;24239;48.058;10.486;2023-07-24T07:31:12;10.02;;;6.93;;
38457;SDS011;24239;48.058;10.486;2023-07-24T08:00:34;9.68;;;6.45;;
38457;SDS011;24239;48.058;10.486;2023-07-24T09:07:39;9.60;;;5.72;;
38457;SDS011;24239;48.058;10.486;2023-07-24T09:23:03;6.00;;;4.40;;
38457;SDS011;24239;48.058;10.486;2023-07-24T10:06:43;6.03;;;4.60;;
38457;SDS011;24239;48.058;10.486;2023-07-24T10:40:18;5.82;;;4.30;;
38457;SDS011;24239;48.058;10.486;2023-07-24T11:19:30;6.60;;;5.03;;
38457;SDS011;24239;48.058;10.486;2023-07-24T11:49:03;12.05;;;8.18;;
38457;SDS011;24239;48.058;10.486;2023-07-24T11:59:44;11.98;;;8.30;;
38457;SDS011;24239;48.058;10.486;2023-07-24T12:06:15;8.32;;;5.90;;
38457;SDS011;24239;48.058;10.486;2023-07-24T12:21:45;10.07;;;6.70;;
38457;SDS011;24239;48.058;10.486;2023-07-24T13:45:32;9.10;;;4.85;;
38457;SDS011;24239;48.058;10.486;2023-07-24T13:49:00;6.55;;;5.00;;
38457;SDS011;24239;48.058;10.486;2023-07-24T14:18:37;2.92;;;1.88;;
38457;SDS011;24239;48.058;10.486;2023-07-24T14:21:58;3.28;;;2.67;;
38457;SDS011;24239;48.058;10.486;2023-07-24T14:43:43;3.38;;;2.45;;
38457;SDS011;24239;48.058;10.486;2023-07-24T14:47:05;2.47;;;2.28;;
38457;SDS011;24239;48.058;10.486;2023-07-24T15:15:32;4.40;;;2.95;;
38457;SDS011;24239;48.058;10.486;2023-07-24T15:26:13;4.53;;;2.58;;
38457;SDS011;24239;48.058;10.486;2023-07-24T15:38:17;6.10;;;3.72;;
38457;SDS011;24239;48.058;10.486;2023-07-24T15:51:48;7.18;;;4.28;;
38457;SDS011;24239;48.058;10.486;2023-07-24T16:18:02;7.43;;;5.47;;
38457;SDS011;24239;48.058;10.486;2023-07-24T16:34:09;12.13;;;7.60;;
38457;SDS011;24239;48.058;10.486;2023-07-24T16:41:13;12.27;;;6.80;;
38457;SDS011;24239;48.058;10.486;2023-07-24T16:48:39;8.95;;;5.47;;
38457;SDS011;24239;48.058;10.486;2023-07-24T16:56:04;9.82;;;4.93;;
38457;SDS011;24239;48.058;10.486;2023-07-24T17:03:05;8.25;;;5.00;;
38457;SDS011;24239;48.058;10.486;2023-07-24T17:07:08;5.28;;;4.13;;
38457;SDS011;24239;48.058;10.486;2023-07-24T17:25:26;8.32;;;5.28;;
38457;SDS011;24239;48.058;10.486;2023-07-24T17:36:27;7.47;;;5.90;;
38457;SDS011;24239;48.058;10.486;2023-07-24T17:47:49;8.00;;;5.18;;
38457;SDS011;24239;48.058;10.486;2023-07-24T18:27:34;11.38;;;5.82;;
38457;SDS011;24239;48.058;10.486;2023-07-24T18:38:58;7.70;;;4.43;;
38457;SDS011;24239;48.058;10.486;2023-07-24T18:46:01;6.05;;;4.38;;
38457;SDS011;24239;48.058;10.486;2023-07-24T18:49:49;8.75;;;5.07;;
38457;SDS011;24239;48.058;10.486;2023-07-24T18:53:35;5.68;;;4.15;;
38457;SDS011;24239;48.058;10.486;2023-07-24T19:13:08;6.82;;;4.22;;
38457;SDS011;24239;48.058;10.486;2023-07-24T19:20:41;6.30;;;4.13;;
38457;SDS011;24239;48.058;10.486;2023-07-24T19:24:12;6.32;;;4.28;;
38457;SDS011;24239;48.058;10.486;2023-07-24T19:56:36;8.07;;;5.90;;
38457;SDS011;24239;48.058;10.486;2023-07-24T20:22:16;6.07;;;4.90;;
38457;SDS011;24239;48.058;10.486;2023-07-24T20:29:35;7.97;;;4.72;;
38457;SDS011;24239;48.058;10.486;2023-07-24T20:55:58;6.47;;;4.60;;
38457;SDS011;24239;48.058;10.486;2023-07-24T21:29:45;7.45;;;5.88;;
38457;SDS011;24239;48.058;10.486;2023-07-24T21:32:58;8.90;;;5.85;;
38457;SDS011;24239;48.058;10.486;2023-07-24T21:36:36;6.75;;;5.47;;
38457;SDS011;24239;48.058;10.486;2023-07-24T21:40:17;14.52;;;5.85;;
38457;SDS011;24239;48.058;10.486;2023-07-24T21:50:42;9.30;;;6.63;;
38457;SDS011;24239;48.058;10.486;2023-07-24T22:06:34;11.32;;;6.53;;
38457;SDS011;24239;48.058;10.486;2023-07-24T22:17:41;12.98;;;6.40;;
38457;SDS011;24239;48.058;10.486;2023-07-24T22:36:14;9.95;;;6.75;;
38457;SDS011;24239;48.058;10.486;2023-07-24T22:54:06;11.32;;;7.30;;
38457;SDS011;24239;48.058;10.486;2023-07-24T22:56:31;9.75;;;7.15;;
38457;SDS011;24239;48.058;10.486;2023-07-24T23:01:29;9.27;;;6.90;;
38457;SDS011;24239;48.058;10.486;2023-07-24T23:03:56;14.95;;;7.20;;
38457;SDS011;24239;48.058;10.486;2023-07-24T23:06:22;11.18;;;7.00;;
38457;SDS011;24239;48.058;10.486;2023-07-24T23:08:48;11.45;;;6.90;;
38457;SDS011;24239;48.058;10.486;2023-07-24T23:11:14;11.05;;;7.03;;
38457;SDS011;24239;48.058;10.486;2023-07-24T23:13:40;8.15;;;6.65;;
38457;SDS011;24239;48.058;10.486;2023-07-24T23:16:05;7.55;;;6.47;;
38457;SDS011;24239;48.058;10.486;2023-07-24T23:18:31;10.38;;;6.13;;
38457;SDS011;24239;48.058;10.486;2023-07-24T23:21:03;8.38;;;6.63;;
38457;SDS011;24239;48.058;10.486;2023-07-24T23:23:29;14.68;;;8.38;;
38457;SDS011;24239;48.058;10.486;2023-07-24T23:25:55;9.52;;;6.63;;
38457;SDS011;24239;48.058;10.486;2023-07-24T23:28:25;12.65;;;7.15;;
38457;SDS011;24239;48.058;10.486;2023-07-24T23:30:51;11.27;;;6.78;;
38457;SDS011;24239;48.058;10.486;2023-07-24T23:33:17;13.00;;;7.45;;
38457;SDS011;24239;48.058;10.486;2023-07-24T23:35:42;8.00;;;6.80;;
38457;SDS011;24239;48.058;10.486;2023-07-24T23:38:08;10.85;;;7.30;;
38457;SDS011;24239;48.058;10.486;2023-07-24T23:40:34;8.95;;;6.70;;
38457;SDS011;24239;48.058;10.486;2023-07-24T23:43:00;9.43;;;7.15;;
38457;SDS011;24239;48.058;10.486;2023-07-24T23:45:30;12.52;;;7.57;;
38457;SDS011;24239;48.058;10.486;2023-07-24T23:47:58;9.07;;;6.90;;
38457;SDS011;24239;48.058;10.486;2023-07-24T23:50:24;12.32;;;7.03;;
38457;SDS011;24239;48.058;10.486;2023-07-24T23:52:50;10.43;;;7.40;;
38457;SDS011;24239;48.058;10.486;2023-07-24T23:55:16;14.40;;;7.70;;
38457;SDS011;24239;48.058;10.486;2023-07-24T23:57:42;9.00;;;6.40;;
